To NAV CANADA Home Page Login to a new session Search on AWWS site Feedback and Comments Disclaimer Vers la page française équivalente Tips FAQ What's new on the site To the Forecasts and Observations / NOTAM section To "File a Flight Plan" website Publications and other links Update of the User's profile FIC Telephone Numbers My Weather Data Folder Route Weather Data Regional Weather Data Local Weather Data To the Forecasts and Observations / NOTAM section
Request Generated 12/04/2016 at 22:23:48 UTC . Weather information available at that time is displayed.

METAR/TAF

TALOYOAK/NU    

METAR CYYH 042200Z 05012KT 4SM -SN SCT020 OVC035 M12/M15 A3004 RMK
SC4SC4 SLP177=
METAR CYYH 042100Z 06011KT 3SM -SN FEW020 OVC035 M12/M14 A3003 RMK
SC2SC6 SLP175=
METAR CYYH 042000Z 05007KT 6SM -SN FEW025 BKN040 OVC090 M11/M14 A3003
RMK SC2SC4AC2 SLP174=

TAF CYYH 041738Z 0418/0506 07012KT P6SM -SN SCT020 OVC040 TEMPO
0418/0506 5SM -SN BR OVC020
RMK NXT FCST BY 050000Z=
Your time UTC time
Weather data provided by Environment Canada and NAV CANADA